sensor_id;sensor_type;location;lat;lon;timestamp;P1;durP1;ratioP1;P2;durP2;ratioP2
51066;SDS011;37112;45.892;-123.962;2023-04-03T00:01:46;9.40;;;1.50;;
51066;SDS011;37112;45.892;-123.962;2023-04-03T00:03:56;10.00;;;1.10;;
51066;SDS011;37112;45.892;-123.962;2023-04-03T00:06:07;7.40;;;1.10;;
51066;SDS011;37112;45.892;-123.962;2023-04-03T00:08:17;2.80;;;0.80;;
51066;SDS011;37112;45.892;-123.962;2023-04-03T00:10:28;6.10;;;1.20;;
51066;SDS011;37112;45.892;-123.962;2023-04-03T00:12:38;11.80;;;1.50;;
51066;SDS011;37112;45.892;-123.962;2023-04-03T00:14:47;6.30;;;1.20;;
51066;SDS011;37112;45.892;-123.962;2023-04-03T00:16:57;14.50;;;2.90;;
51066;SDS011;37112;45.892;-123.962;2023-04-03T00:19:07;2.70;;;1.40;;
51066;SDS011;37112;45.892;-123.962;2023-04-03T00:21:18;6.00;;;0.70;;
51066;SDS011;37112;45.892;-123.962;2023-04-03T00:23:28;10.30;;;1.00;;
51066;SDS011;37112;45.892;-123.962;2023-04-03T00:25:39;9.60;;;2.30;;
51066;SDS011;37112;45.892;-123.962;2023-04-03T00:27:49;6.80;;;1.70;;
51066;SDS011;37112;45.892;-123.962;2023-04-03T00:29:59;11.10;;;1.60;;
51066;SDS011;37112;45.892;-123.962;2023-04-03T00:32:10;7.20;;;1.00;;
51066;SDS011;37112;45.892;-123.962;2023-04-03T00:34:20;4.80;;;1.10;;
51066;SDS011;37112;45.892;-123.962;2023-04-03T00:36:30;9.30;;;1.30;;
51066;SDS011;37112;45.892;-123.962;2023-04-03T00:38:40;6.60;;;1.10;;
51066;SDS011;37112;45.892;-123.962;2023-04-03T00:40:50;9.40;;;1.50;;
51066;SDS011;37112;45.892;-123.962;2023-04-03T00:43:00;7.70;;;1.30;;
51066;SDS011;37112;45.892;-123.962;2023-04-03T00:45:30;5.70;;;1.30;;
51066;SDS011;37112;45.892;-123.962;2023-04-03T00:47:42;3.50;;;0.90;;
51066;SDS011;37112;45.892;-123.962;2023-04-03T00:49:53;9.00;;;1.00;;
51066;SDS011;37112;45.892;-123.962;2023-04-03T00:52:03;8.70;;;0.80;;
51066;SDS011;37112;45.892;-123.962;2023-04-03T00:54:16;9.10;;;0.90;;
51066;SDS011;37112;45.892;-123.962;2023-04-03T00:56:26;10.10;;;2.10;;
51066;SDS011;37112;45.892;-123.962;2023-04-03T00:58:38;12.00;;;1.20;;
51066;SDS011;37112;45.892;-123.962;2023-04-03T01:00:53;6.60;;;1.40;;
51066;SDS011;37112;45.892;-123.962;2023-04-03T01:03:05;7.40;;;1.10;;
51066;SDS011;37112;45.892;-123.962;2023-04-03T01:05:16;4.20;;;1.30;;
51066;SDS011;37112;45.892;-123.962;2023-04-03T01:07:29;6.90;;;1.50;;
51066;SDS011;37112;45.892;-123.962;2023-04-03T01:09:40;14.80;;;1.50;;
51066;SDS011;37112;45.892;-123.962;2023-04-03T01:11:52;2.90;;;1.60;;
51066;SDS011;37112;45.892;-123.962;2023-04-03T01:14:20;3.70;;;1.20;;
51066;SDS011;37112;45.892;-123.962;2023-04-03T01:16:30;1.40;;;0.70;;
51066;SDS011;37112;45.892;-123.962;2023-04-03T01:18:41;10.70;;;1.60;;
51066;SDS011;37112;45.892;-123.962;2023-04-03T01:21:05;2.70;;;0.90;;
51066;SDS011;37112;45.892;-123.962;2023-04-03T01:23:32;1.50;;;1.00;;
51066;SDS011;37112;45.892;-123.962;2023-04-03T01:25:54;5.80;;;0.70;;
51066;SDS011;37112;45.892;-123.962;2023-04-03T01:28:05;2.40;;;0.60;;
51066;SDS011;37112;45.892;-123.962;2023-04-03T01:30:18;1.70;;;0.70;;
51066;SDS011;37112;45.892;-123.962;2023-04-03T01:32:32;3.90;;;1.20;;
51066;SDS011;37112;45.892;-123.962;2023-04-03T01:34:43;5.80;;;1.30;;
51066;SDS011;37112;45.892;-123.962;2023-04-03T01:36:52;7.00;;;0.90;;
51066;SDS011;37112;45.892;-123.962;2023-04-03T01:39:03;3.10;;;0.90;;
51066;SDS011;37112;45.892;-123.962;2023-04-03T01:41:13;7.00;;;1.30;;
51066;SDS011;37112;45.892;-123.962;2023-04-03T01:43:25;4.10;;;0.80;;
51066;SDS011;37112;45.892;-123.962;2023-04-03T01:45:35;6.50;;;0.90;;
51066;SDS011;37112;45.892;-123.962;2023-04-03T01:47:45;3.70;;;1.40;;
51066;SDS011;37112;45.892;-123.962;2023-04-03T01:49:56;8.30;;;1.00;;
51066;SDS011;37112;45.892;-123.962;2023-04-03T01:52:08;3.30;;;0.60;;
51066;SDS011;37112;45.892;-123.962;2023-04-03T01:54:18;2.20;;;0.70;;
51066;SDS011;37112;45.892;-123.962;2023-04-03T01:56:28;3.40;;;1.10;;
51066;SDS011;37112;45.892;-123.962;2023-04-03T01:58:38;6.20;;;1.80;;
51066;SDS011;37112;45.892;-123.962;2023-04-03T02:00:48;10.20;;;1.00;;
51066;SDS011;37112;45.892;-123.962;2023-04-03T02:02:58;7.60;;;1.40;;
51066;SDS011;37112;45.892;-123.962;2023-04-03T02:05:09;10.60;;;1.10;;
51066;SDS011;37112;45.892;-123.962;2023-04-03T02:07:19;6.90;;;1.20;;
51066;SDS011;37112;45.892;-123.962;2023-04-03T02:09:29;8.20;;;1.70;;
51066;SDS011;37112;45.892;-123.962;2023-04-03T02:11:39;9.90;;;1.90;;
51066;SDS011;37112;45.892;-123.962;2023-04-03T02:13:50;7.70;;;3.20;;
51066;SDS011;37112;45.892;-123.962;2023-04-03T02:16:07;7.40;;;1.10;;
51066;SDS011;37112;45.892;-123.962;2023-04-03T02:18:19;14.60;;;1.40;;
51066;SDS011;37112;45.892;-123.962;2023-04-03T02:20:29;11.10;;;2.00;;
51066;SDS011;37112;45.892;-123.962;2023-04-03T02:22:39;7.20;;;1.80;;
51066;SDS011;37112;45.892;-123.962;2023-04-03T02:24:49;3.50;;;0.80;;
51066;SDS011;37112;45.892;-123.962;2023-04-03T02:26:59;14.80;;;2.10;;
51066;SDS011;37112;45.892;-123.962;2023-04-03T02:29:09;5.20;;;0.90;;
51066;SDS011;37112;45.892;-123.962;2023-04-03T02:31:19;15.30;;;2.50;;
51066;SDS011;37112;45.892;-123.962;2023-04-03T02:33:30;7.00;;;1.60;;
51066;SDS011;37112;45.892;-123.962;2023-04-03T02:35:41;6.90;;;1.00;;
51066;SDS011;37112;45.892;-123.962;2023-04-03T02:37:59;8.90;;;1.60;;
51066;SDS011;37112;45.892;-123.962;2023-04-03T02:40:09;8.90;;;1.90;;
51066;SDS011;37112;45.892;-123.962;2023-04-03T02:42:19;6.40;;;1.10;;
51066;SDS011;37112;45.892;-123.962;2023-04-03T02:44:30;6.30;;;1.00;;
51066;SDS011;37112;45.892;-123.962;2023-04-03T02:46:40;6.20;;;0.70;;
51066;SDS011;37112;45.892;-123.962;2023-04-03T02:48:50;5.70;;;0.70;;
51066;SDS011;37112;45.892;-123.962;2023-04-03T02:51:01;3.00;;;1.00;;
51066;SDS011;37112;45.892;-123.962;2023-04-03T02:53:11;6.90;;;1.30;;
51066;SDS011;37112;45.892;-123.962;2023-04-03T02:55:21;8.60;;;1.20;;
51066;SDS011;37112;45.892;-123.962;2023-04-03T02:57:32;10.30;;;2.40;;
51066;SDS011;37112;45.892;-123.962;2023-04-03T02:59:42;5.40;;;0.90;;
51066;SDS011;37112;45.892;-123.962;2023-04-03T03:01:52;3.10;;;1.00;;
51066;SDS011;37112;45.892;-123.962;2023-04-03T03:04:02;0.80;;;0.60;;
51066;SDS011;37112;45.892;-123.962;2023-04-03T03:06:13;3.10;;;0.70;;
51066;SDS011;37112;45.892;-123.962;2023-04-03T03:08:24;2.30;;;0.80;;
51066;SDS011;37112;45.892;-123.962;2023-04-03T03:10:34;3.70;;;0.60;;
51066;SDS011;37112;45.892;-123.962;2023-04-03T03:12:45;0.70;;;0.50;;
51066;SDS011;37112;45.892;-123.962;2023-04-03T03:14:55;2.60;;;0.50;;
51066;SDS011;37112;45.892;-123.962;2023-04-03T03:17:05;3.80;;;0.80;;
51066;SDS011;37112;45.892;-123.962;2023-04-03T03:19:16;3.30;;;0.80;;
51066;SDS011;37112;45.892;-123.962;2023-04-03T03:21:26;2.50;;;0.70;;
51066;SDS011;37112;45.892;-123.962;2023-04-03T03:23:37;3.50;;;1.30;;
51066;SDS011;37112;45.892;-123.962;2023-04-03T03:25:47;1.00;;;0.80;;
51066;SDS011;37112;45.892;-123.962;2023-04-03T03:27:56;1.90;;;1.00;;
51066;SDS011;37112;45.892;-123.962;2023-04-03T03:30:07;4.20;;;1.70;;
51066;SDS011;37112;45.892;-123.962;2023-04-03T03:32:18;7.70;;;2.40;;
51066;SDS011;37112;45.892;-123.962;2023-04-03T03:34:28;7.90;;;1.40;;
51066;SDS011;37112;45.892;-123.962;2023-04-03T03:36:38;10.30;;;1.70;;
51066;SDS011;37112;45.892;-123.962;2023-04-03T03:38:49;7.90;;;1.50;;
51066;SDS011;37112;45.892;-123.962;2023-04-03T03:40:59;18.00;;;1.60;;
51066;SDS011;37112;45.892;-123.962;2023-04-03T03:43:10;8.60;;;1.20;;
51066;SDS011;37112;45.892;-123.962;2023-04-03T03:45:21;9.50;;;1.90;;
51066;SDS011;37112;45.892;-123.962;2023-04-03T03:47:31;5.90;;;1.50;;
51066;SDS011;37112;45.892;-123.962;2023-04-03T03:49:41;7.10;;;1.00;;
51066;SDS011;37112;45.892;-123.962;2023-04-03T03:51:52;21.10;;;2.50;;
51066;SDS011;37112;45.892;-123.962;2023-04-03T03:54:02;6.00;;;1.00;;
51066;SDS011;37112;45.892;-123.962;2023-04-03T03:56:13;15.00;;;3.30;;
51066;SDS011;37112;45.892;-123.962;2023-04-03T03:58:24;10.50;;;2.00;;
51066;SDS011;37112;45.892;-123.962;2023-04-03T04:00:34;12.40;;;1.50;;
51066;SDS011;37112;45.892;-123.962;2023-04-03T04:02:45;7.70;;;0.90;;
51066;SDS011;37112;45.892;-123.962;2023-04-03T04:04:59;5.10;;;1.00;;
51066;SDS011;37112;45.892;-123.962;2023-04-03T04:07:09;9.60;;;2.50;;
51066;SDS011;37112;45.892;-123.962;2023-04-03T04:09:20;11.50;;;1.90;;
51066;SDS011;37112;45.892;-123.962;2023-04-03T04:11:30;12.80;;;2.20;;
51066;SDS011;37112;45.892;-123.962;2023-04-03T04:13:41;7.70;;;1.70;;
51066;SDS011;37112;45.892;-123.962;2023-04-03T04:15:51;3.90;;;1.30;;
51066;SDS011;37112;45.892;-123.962;2023-04-03T04:18:01;7.70;;;0.80;;
51066;SDS011;37112;45.892;-123.962;2023-04-03T04:20:12;19.20;;;4.20;;
51066;SDS011;37112;45.892;-123.962;2023-04-03T04:22:22;10.00;;;2.20;;
51066;SDS011;37112;45.892;-123.962;2023-04-03T04:24:32;16.00;;;2.10;;
51066;SDS011;37112;45.892;-123.962;2023-04-03T04:26:45;14.30;;;2.20;;
51066;SDS011;37112;45.892;-123.962;2023-04-03T04:28:55;5.70;;;1.30;;
51066;SDS011;37112;45.892;-123.962;2023-04-03T04:31:05;19.10;;;3.90;;
51066;SDS011;37112;45.892;-123.962;2023-04-03T04:33:15;10.60;;;1.80;;
51066;SDS011;37112;45.892;-123.962;2023-04-03T04:35:24;14.40;;;2.10;;
51066;SDS011;37112;45.892;-123.962;2023-04-03T04:37:35;17.10;;;1.70;;
51066;SDS011;37112;45.892;-123.962;2023-04-03T04:39:46;9.80;;;2.70;;
51066;SDS011;37112;45.892;-123.962;2023-04-03T04:41:56;2.80;;;1.10;;
51066;SDS011;37112;45.892;-123.962;2023-04-03T04:44:06;4.20;;;0.90;;
51066;SDS011;37112;45.892;-123.962;2023-04-03T04:46:17;2.60;;;0.90;;
51066;SDS011;37112;45.892;-123.962;2023-04-03T04:48:31;4.40;;;0.90;;
51066;SDS011;37112;45.892;-123.962;2023-04-03T04:50:42;5.80;;;1.90;;
51066;SDS011;37112;45.892;-123.962;2023-04-03T04:52:52;5.60;;;1.30;;
51066;SDS011;37112;45.892;-123.962;2023-04-03T04:55:02;3.10;;;0.90;;
51066;SDS011;37112;45.892;-123.962;2023-04-03T04:57:13;3.00;;;1.00;;
51066;SDS011;37112;45.892;-123.962;2023-04-03T04:59:23;4.20;;;1.00;;
51066;SDS011;37112;45.892;-123.962;2023-04-03T05:01:35;4.00;;;1.10;;
51066;SDS011;37112;45.892;-123.962;2023-04-03T05:03:48;7.20;;;1.00;;
51066;SDS011;37112;45.892;-123.962;2023-04-03T05:06:00;2.80;;;1.00;;
51066;SDS011;37112;45.892;-123.962;2023-04-03T05:08:11;1.40;;;0.80;;
51066;SDS011;37112;45.892;-123.962;2023-04-03T05:10:21;1.50;;;1.00;;
51066;SDS011;37112;45.892;-123.962;2023-04-03T05:12:31;3.80;;;1.10;;
51066;SDS011;37112;45.892;-123.962;2023-04-03T05:14:42;1.10;;;0.70;;
51066;SDS011;37112;45.892;-123.962;2023-04-03T05:16:53;1.90;;;1.10;;
51066;SDS011;37112;45.892;-123.962;2023-04-03T05:19:05;5.00;;;1.00;;
51066;SDS011;37112;45.892;-123.962;2023-04-03T05:21:16;2.20;;;0.70;;
51066;SDS011;37112;45.892;-123.962;2023-04-03T05:23:29;4.20;;;0.70;;
51066;SDS011;37112;45.892;-123.962;2023-04-03T05:25:40;2.10;;;0.60;;
51066;SDS011;37112;45.892;-123.962;2023-04-03T05:27:51;1.10;;;0.50;;
51066;SDS011;37112;45.892;-123.962;2023-04-03T05:30:02;6.50;;;1.00;;
51066;SDS011;37112;45.892;-123.962;2023-04-03T05:32:14;1.20;;;0.60;;
51066;SDS011;37112;45.892;-123.962;2023-04-03T05:34:25;1.00;;;0.90;;
51066;SDS011;37112;45.892;-123.962;2023-04-03T05:36:35;1.70;;;0.60;;
51066;SDS011;37112;45.892;-123.962;2023-04-03T05:38:45;2.60;;;0.70;;
51066;SDS011;37112;45.892;-123.962;2023-04-03T05:40:56;0.60;;;0.60;;
51066;SDS011;37112;45.892;-123.962;2023-04-03T05:43:07;1.40;;;0.60;;
51066;SDS011;37112;45.892;-123.962;2023-04-03T05:45:18;4.90;;;1.10;;
51066;SDS011;37112;45.892;-123.962;2023-04-03T05:47:28;3.40;;;1.20;;
51066;SDS011;37112;45.892;-123.962;2023-04-03T05:49:40;1.60;;;0.80;;
51066;SDS011;37112;45.892;-123.962;2023-04-03T05:51:52;0.80;;;0.60;;
51066;SDS011;37112;45.892;-123.962;2023-04-03T05:54:08;2.30;;;0.70;;
51066;SDS011;37112;45.892;-123.962;2023-04-03T05:56:21;4.80;;;1.00;;
51066;SDS011;37112;45.892;-123.962;2023-04-03T05:58:31;2.80;;;1.20;;
51066;SDS011;37112;45.892;-123.962;2023-04-03T06:00:41;1.70;;;1.10;;
51066;SDS011;37112;45.892;-123.962;2023-04-03T06:02:51;3.50;;;1.00;;
51066;SDS011;37112;45.892;-123.962;2023-04-03T06:05:01;4.30;;;2.10;;
51066;SDS011;37112;45.892;-123.962;2023-04-03T06:07:13;1.00;;;0.80;;
51066;SDS011;37112;45.892;-123.962;2023-04-03T06:09:27;1.10;;;0.70;;
51066;SDS011;37112;45.892;-123.962;2023-04-03T06:11:37;0.90;;;0.60;;
51066;SDS011;37112;45.892;-123.962;2023-04-03T06:13:47;2.30;;;0.50;;
51066;SDS011;37112;45.892;-123.962;2023-04-03T06:15:58;3.10;;;0.60;;
51066;SDS011;37112;45.892;-123.962;2023-04-03T06:18:08;1.20;;;0.60;;
51066;SDS011;37112;45.892;-123.962;2023-04-03T06:20:18;1.10;;;0.60;;
51066;SDS011;37112;45.892;-123.962;2023-04-03T06:22:28;4.10;;;0.60;;
51066;SDS011;37112;45.892;-123.962;2023-04-03T06:24:38;2.50;;;0.70;;
51066;SDS011;37112;45.892;-123.962;2023-04-03T06:26:49;12.80;;;1.80;;
51066;SDS011;37112;45.892;-123.962;2023-04-03T06:28:59;9.10;;;1.30;;
51066;SDS011;37112;45.892;-123.962;2023-04-03T06:31:09;3.80;;;1.00;;
51066;SDS011;37112;45.892;-123.962;2023-04-03T06:33:19;1.70;;;0.60;;
51066;SDS011;37112;45.892;-123.962;2023-04-03T06:35:29;2.40;;;0.70;;
51066;SDS011;37112;45.892;-123.962;2023-04-03T06:37:41;1.90;;;0.70;;
51066;SDS011;37112;45.892;-123.962;2023-04-03T06:39:51;2.10;;;0.70;;
51066;SDS011;37112;45.892;-123.962;2023-04-03T06:42:01;0.80;;;0.80;;
51066;SDS011;37112;45.892;-123.962;2023-04-03T06:44:15;1.40;;;0.70;;
51066;SDS011;37112;45.892;-123.962;2023-04-03T06:46:25;0.70;;;0.50;;
51066;SDS011;37112;45.892;-123.962;2023-04-03T06:48:36;1.60;;;0.70;;
51066;SDS011;37112;45.892;-123.962;2023-04-03T06:50:46;2.90;;;0.70;;
51066;SDS011;37112;45.892;-123.962;2023-04-03T06:52:57;1.60;;;0.60;;
51066;SDS011;37112;45.892;-123.962;2023-04-03T06:55:08;0.90;;;0.50;;
51066;SDS011;37112;45.892;-123.962;2023-04-03T06:57:18;1.10;;;0.60;;
51066;SDS011;37112;45.892;-123.962;2023-04-03T06:59:28;0.60;;;0.50;;
51066;SDS011;37112;45.892;-123.962;2023-04-03T07:01:38;0.70;;;0.60;;
51066;SDS011;37112;45.892;-123.962;2023-04-03T07:03:49;3.00;;;0.50;;
51066;SDS011;37112;45.892;-123.962;2023-04-03T07:05:59;0.90;;;0.50;;
51066;SDS011;37112;45.892;-123.962;2023-04-03T07:08:09;0.50;;;0.50;;
51066;SDS011;37112;45.892;-123.962;2023-04-03T07:10:19;0.50;;;0.50;;
51066;SDS011;37112;45.892;-123.962;2023-04-03T07:12:31;1.60;;;0.50;;
51066;SDS011;37112;45.892;-123.962;2023-04-03T07:14:41;1.80;;;0.60;;
51066;SDS011;37112;45.892;-123.962;2023-04-03T07:16:51;0.70;;;0.60;;
51066;SDS011;37112;45.892;-123.962;2023-04-03T07:19:02;0.80;;;0.60;;
51066;SDS011;37112;45.892;-123.962;2023-04-03T07:21:12;0.60;;;0.50;;
51066;SDS011;37112;45.892;-123.962;2023-04-03T07:23:22;2.30;;;0.50;;
51066;SDS011;37112;45.892;-123.962;2023-04-03T07:25:32;0.40;;;0.40;;
51066;SDS011;37112;45.892;-123.962;2023-04-03T07:27:43;0.50;;;0.50;;
51066;SDS011;37112;45.892;-123.962;2023-04-03T07:29:53;0.70;;;0.50;;
51066;SDS011;37112;45.892;-123.962;2023-04-03T07:32:04;1.30;;;0.60;;
51066;SDS011;37112;45.892;-123.962;2023-04-03T07:34:14;0.50;;;0.50;;
51066;SDS011;37112;45.892;-123.962;2023-04-03T07:36:24;1.50;;;0.40;;
51066;SDS011;37112;45.892;-123.962;2023-04-03T07:38:35;3.20;;;0.60;;
51066;SDS011;37112;45.892;-123.962;2023-04-03T07:40:47;1.00;;;0.60;;
51066;SDS011;37112;45.892;-123.962;2023-04-03T07:42:58;1.00;;;0.70;;
51066;SDS011;37112;45.892;-123.962;2023-04-03T07:45:09;1.50;;;0.60;;
51066;SDS011;37112;45.892;-123.962;2023-04-03T07:47:19;2.60;;;0.70;;
51066;SDS011;37112;45.892;-123.962;2023-04-03T07:49:29;2.10;;;0.80;;
51066;SDS011;37112;45.892;-123.962;2023-04-03T07:51:40;0.80;;;0.50;;
51066;SDS011;37112;45.892;-123.962;2023-04-03T07:53:50;1.20;;;0.70;;
51066;SDS011;37112;45.892;-123.962;2023-04-03T07:56:00;0.50;;;0.50;;
51066;SDS011;37112;45.892;-123.962;2023-04-03T07:58:11;0.60;;;0.60;;
51066;SDS011;37112;45.892;-123.962;2023-04-03T08:00:22;1.50;;;0.60;;
51066;SDS011;37112;45.892;-123.962;2023-04-03T08:02:33;1.20;;;0.50;;
51066;SDS011;37112;45.892;-123.962;2023-04-03T08:04:43;0.70;;;0.50;;
51066;SDS011;37112;45.892;-123.962;2023-04-03T08:06:53;0.60;;;0.50;;
51066;SDS011;37112;45.892;-123.962;2023-04-03T08:09:03;0.50;;;0.50;;
51066;SDS011;37112;45.892;-123.962;2023-04-03T08:11:13;0.50;;;0.50;;
51066;SDS011;37112;45.892;-123.962;2023-04-03T08:13:24;0.50;;;0.50;;
51066;SDS011;37112;45.892;-123.962;2023-04-03T08:15:35;1.10;;;0.60;;
51066;SDS011;37112;45.892;-123.962;2023-04-03T08:17:44;2.30;;;0.50;;
51066;SDS011;37112;45.892;-123.962;2023-04-03T08:19:54;0.70;;;0.70;;
51066;SDS011;37112;45.892;-123.962;2023-04-03T08:22:04;0.60;;;0.50;;
51066;SDS011;37112;45.892;-123.962;2023-04-03T08:24:13;0.80;;;0.50;;
51066;SDS011;37112;45.892;-123.962;2023-04-03T08:26:23;0.50;;;0.50;;
51066;SDS011;37112;45.892;-123.962;2023-04-03T08:28:34;0.60;;;0.50;;
51066;SDS011;37112;45.892;-123.962;2023-04-03T08:30:43;1.30;;;0.60;;
51066;SDS011;37112;45.892;-123.962;2023-04-03T08:32:53;1.80;;;0.60;;
51066;SDS011;37112;45.892;-123.962;2023-04-03T08:35:03;0.60;;;0.60;;
51066;SDS011;37112;45.892;-123.962;2023-04-03T08:37:13;0.80;;;0.70;;
51066;SDS011;37112;45.892;-123.962;2023-04-03T08:39:23;0.50;;;0.50;;
51066;SDS011;37112;45.892;-123.962;2023-04-03T08:41:34;0.50;;;0.50;;
51066;SDS011;37112;45.892;-123.962;2023-04-03T08:46:02;0.50;;;0.50;;
51066;SDS011;37112;45.892;-123.962;2023-04-03T08:48:19;2.00;;;0.70;;
51066;SDS011;37112;45.892;-123.962;2023-04-03T08:50:33;0.50;;;0.50;;
51066;SDS011;37112;45.892;-123.962;2023-04-03T08:52:47;5.00;;;0.60;;
51066;SDS011;37112;45.892;-123.962;2023-04-03T08:55:00;3.10;;;0.60;;
51066;SDS011;37112;45.892;-123.962;2023-04-03T08:57:13;1.90;;;1.30;;
51066;SDS011;37112;45.892;-123.962;2023-04-03T08:59:25;2.10;;;0.70;;
51066;SDS011;37112;45.892;-123.962;2023-04-03T09:01:39;1.00;;;0.50;;
51066;SDS011;37112;45.892;-123.962;2023-04-03T09:03:50;1.40;;;0.50;;
51066;SDS011;37112;45.892;-123.962;2023-04-03T09:06:02;0.90;;;0.60;;
51066;SDS011;37112;45.892;-123.962;2023-04-03T09:08:17;2.40;;;0.50;;
51066;SDS011;37112;45.892;-123.962;2023-04-03T09:10:32;1.20;;;0.60;;
51066;SDS011;37112;45.892;-123.962;2023-04-03T09:14:57;1.50;;;0.50;;
51066;SDS011;37112;45.892;-123.962;2023-04-03T09:17:14;0.60;;;0.60;;
51066;SDS011;37112;45.892;-123.962;2023-04-03T09:19:32;0.50;;;0.50;;
51066;SDS011;37112;45.892;-123.962;2023-04-03T09:21:50;0.60;;;0.60;;
51066;SDS011;37112;45.892;-123.962;2023-04-03T09:24:00;0.60;;;0.60;;
51066;SDS011;37112;45.892;-123.962;2023-04-03T09:26:15;0.50;;;0.50;;
51066;SDS011;37112;45.892;-123.962;2023-04-03T09:28:33;0.70;;;0.50;;
51066;SDS011;37112;45.892;-123.962;2023-04-03T09:30:55;1.50;;;0.60;;
51066;SDS011;37112;45.892;-123.962;2023-04-03T09:33:07;2.20;;;0.70;;
51066;SDS011;37112;45.892;-123.962;2023-04-03T09:35:20;0.60;;;0.60;;
51066;SDS011;37112;45.892;-123.962;2023-04-03T09:37:49;0.80;;;0.70;;
51066;SDS011;37112;45.892;-123.962;2023-04-03T09:40:03;0.70;;;0.50;;
51066;SDS011;37112;45.892;-123.962;2023-04-03T09:42:14;0.90;;;0.60;;
51066;SDS011;37112;45.892;-123.962;2023-04-03T09:44:29;0.50;;;0.50;;
51066;SDS011;37112;45.892;-123.962;2023-04-03T09:46:40;3.50;;;0.60;;
51066;SDS011;37112;45.892;-123.962;2023-04-03T09:48:51;1.30;;;0.90;;
51066;SDS011;37112;45.892;-123.962;2023-04-03T09:51:13;3.00;;;0.60;;
51066;SDS011;37112;45.892;-123.962;2023-04-03T09:53:27;0.90;;;0.60;;
51066;SDS011;37112;45.892;-123.962;2023-04-03T09:55:43;1.80;;;1.30;;
51066;SDS011;37112;45.892;-123.962;2023-04-03T09:57:54;0.50;;;0.50;;
51066;SDS011;37112;45.892;-123.962;2023-04-03T10:00:06;3.00;;;0.80;;
51066;SDS011;37112;45.892;-123.962;2023-04-03T10:02:34;0.90;;;0.60;;
51066;SDS011;37112;45.892;-123.962;2023-04-03T10:04:46;3.30;;;0.50;;
51066;SDS011;37112;45.892;-123.962;2023-04-03T10:07:29;2.70;;;1.00;;
51066;SDS011;37112;45.892;-123.962;2023-04-03T10:09:41;4.00;;;0.90;;
51066;SDS011;37112;45.892;-123.962;2023-04-03T10:12:05;6.40;;;1.40;;
51066;SDS011;37112;45.892;-123.962;2023-04-03T10:14:17;2.00;;;0.80;;
51066;SDS011;37112;45.892;-123.962;2023-04-03T10:16:28;1.50;;;0.70;;
51066;SDS011;37112;45.892;-123.962;2023-04-03T10:18:45;1.50;;;0.70;;
51066;SDS011;37112;45.892;-123.962;2023-04-03T10:20:59;3.50;;;0.80;;
51066;SDS011;37112;45.892;-123.962;2023-04-03T10:23:26;0.90;;;0.70;;
51066;SDS011;37112;45.892;-123.962;2023-04-03T10:25:41;2.80;;;0.80;;
51066;SDS011;37112;45.892;-123.962;2023-04-03T10:27:58;4.00;;;0.80;;
51066;SDS011;37112;45.892;-123.962;2023-04-03T10:30:18;1.20;;;0.60;;
51066;SDS011;37112;45.892;-123.962;2023-04-03T10:32:44;2.30;;;0.80;;
51066;SDS011;37112;45.892;-123.962;2023-04-03T10:35:06;0.80;;;0.60;;
51066;SDS011;37112;45.892;-123.962;2023-04-03T10:37:24;1.60;;;0.70;;
51066;SDS011;37112;45.892;-123.962;2023-04-03T10:39:45;2.70;;;0.60;;
51066;SDS011;37112;45.892;-123.962;2023-04-03T10:42:02;0.50;;;0.50;;
51066;SDS011;37112;45.892;-123.962;2023-04-03T10:44:24;0.80;;;0.70;;
51066;SDS011;37112;45.892;-123.962;2023-04-03T10:46:45;0.50;;;0.50;;
51066;SDS011;37112;45.892;-123.962;2023-04-03T10:49:05;2.40;;;1.30;;
51066;SDS011;37112;45.892;-123.962;2023-04-03T10:51:27;3.40;;;0.60;;
51066;SDS011;37112;45.892;-123.962;2023-04-03T10:53:42;2.00;;;0.50;;
51066;SDS011;37112;45.892;-123.962;2023-04-03T10:56:01;1.00;;;0.60;;
51066;SDS011;37112;45.892;-123.962;2023-04-03T10:58:19;1.20;;;0.60;;
51066;SDS011;37112;45.892;-123.962;2023-04-03T11:00:36;3.70;;;0.60;;
51066;SDS011;37112;45.892;-123.962;2023-04-03T11:02:49;1.90;;;0.70;;
51066;SDS011;37112;45.892;-123.962;2023-04-03T11:05:04;3.40;;;0.70;;
51066;SDS011;37112;45.892;-123.962;2023-04-03T11:07:23;0.60;;;0.60;;
51066;SDS011;37112;45.892;-123.962;2023-04-03T11:09:37;1.40;;;0.70;;
51066;SDS011;37112;45.892;-123.962;2023-04-03T11:11:53;1.60;;;0.70;;
51066;SDS011;37112;45.892;-123.962;2023-04-03T11:14:11;2.20;;;0.60;;
51066;SDS011;37112;45.892;-123.962;2023-04-03T11:16:28;2.50;;;0.60;;
51066;SDS011;37112;45.892;-123.962;2023-04-03T11:18:58;4.40;;;0.80;;
51066;SDS011;37112;45.892;-123.962;2023-04-03T11:21:13;1.40;;;0.60;;
51066;SDS011;37112;45.892;-123.962;2023-04-03T11:23:30;2.40;;;0.70;;
51066;SDS011;37112;45.892;-123.962;2023-04-03T11:25:55;0.90;;;0.60;;
51066;SDS011;37112;45.892;-123.962;2023-04-03T11:28:13;1.10;;;1.00;;
51066;SDS011;37112;45.892;-123.962;2023-04-03T11:30:24;0.90;;;0.80;;
51066;SDS011;37112;45.892;-123.962;2023-04-03T11:32:45;2.80;;;0.70;;
51066;SDS011;37112;45.892;-123.962;2023-04-03T11:35:16;2.00;;;0.70;;
51066;SDS011;37112;45.892;-123.962;2023-04-03T11:37:31;0.80;;;0.60;;
51066;SDS011;37112;45.892;-123.962;2023-04-03T11:39:48;2.70;;;0.70;;
51066;SDS011;37112;45.892;-123.962;2023-04-03T11:42:16;3.80;;;0.60;;
51066;SDS011;37112;45.892;-123.962;2023-04-03T11:44:34;0.90;;;0.60;;
51066;SDS011;37112;45.892;-123.962;2023-04-03T11:46:52;1.30;;;0.60;;
51066;SDS011;37112;45.892;-123.962;2023-04-03T11:49:03;4.30;;;0.70;;
51066;SDS011;37112;45.892;-123.962;2023-04-03T11:51:42;0.60;;;0.60;;
51066;SDS011;37112;45.892;-123.962;2023-04-03T11:53:52;2.70;;;0.60;;
51066;SDS011;37112;45.892;-123.962;2023-04-03T11:56:29;4.70;;;0.70;;
51066;SDS011;37112;45.892;-123.962;2023-04-03T11:58:39;1.10;;;0.80;;
51066;SDS011;37112;45.892;-123.962;2023-04-03T12:01:10;0.70;;;0.50;;
51066;SDS011;37112;45.892;-123.962;2023-04-03T12:08:59;3.00;;;1.30;;
51066;SDS011;37112;45.892;-123.962;2023-04-03T12:11:19;0.80;;;0.60;;
51066;SDS011;37112;45.892;-123.962;2023-04-03T12:13:37;1.10;;;0.70;;
51066;SDS011;37112;45.892;-123.962;2023-04-03T12:15:50;1.00;;;0.70;;
51066;SDS011;37112;45.892;-123.962;2023-04-03T12:20:57;0.80;;;0.50;;
51066;SDS011;37112;45.892;-123.962;2023-04-03T12:23:21;2.40;;;0.80;;
51066;SDS011;37112;45.892;-123.962;2023-04-03T12:25:48;0.70;;;0.70;;
51066;SDS011;37112;45.892;-123.962;2023-04-03T12:27:58;3.50;;;0.90;;
51066;SDS011;37112;45.892;-123.962;2023-04-03T12:30:18;2.70;;;1.70;;
51066;SDS011;37112;45.892;-123.962;2023-04-03T12:32:38;0.70;;;0.60;;
51066;SDS011;37112;45.892;-123.962;2023-04-03T12:35:22;2.70;;;0.80;;
51066;SDS011;37112;45.892;-123.962;2023-04-03T12:37:54;0.70;;;0.60;;
51066;SDS011;37112;45.892;-123.962;2023-04-03T12:40:23;0.60;;;0.60;;
51066;SDS011;37112;45.892;-123.962;2023-04-03T12:42:43;2.30;;;0.70;;
51066;SDS011;37112;45.892;-123.962;2023-04-03T12:45:16;2.00;;;0.60;;
51066;SDS011;37112;45.892;-123.962;2023-04-03T12:47:30;1.00;;;0.60;;
51066;SDS011;37112;45.892;-123.962;2023-04-03T12:49:42;1.00;;;1.00;;
51066;SDS011;37112;45.892;-123.962;2023-04-03T12:51:55;1.00;;;0.60;;
51066;SDS011;37112;45.892;-123.962;2023-04-03T12:54:13;1.70;;;0.60;;
51066;SDS011;37112;45.892;-123.962;2023-04-03T12:56:28;2.30;;;0.60;;
51066;SDS011;37112;45.892;-123.962;2023-04-03T12:58:39;1.30;;;0.70;;
51066;SDS011;37112;45.892;-123.962;2023-04-03T13:00:59;4.20;;;0.70;;